Time;durP1;ratioP1;P1;durP2;ratioP2;P2;SDS_P1;SDS_P2;PMS_P1;PMS_P2;Temp;Humidity;BMP_temperature;BMP_pressure;BME280_temperature;BME280_humidity;BME280_pressure;Samples;Min_cycle;Max_cycle;Signal;HPM_P1;HPM_P2
2022/06/11 00:01:57;;;;;;;0.60;0.13;;;20.30;99.90;;;;;;5053379;28;20443;-70
2022/06/11 00:04:29;;;;;;;0.60;0.10;;;20.10;99.90;;;;;;5054294;28;20474;-69
2022/06/11 00:07:00;;;;;;;0.60;0.10;;;20.10;99.90;;;;;;5053676;28;20969;-69
2022/06/11 00:09:28;;;;;;;0.60;0.20;;;20.00;99.90;;;;;;5054231;28;20442;-69
2022/06/11 00:11:57;;;;;;;0.60;0.20;;;20.00;99.90;;;;;;5053054;28;20443;-71
2022/06/11 00:14:29;;;;;;;0.60;0.10;;;20.00;99.90;;;;;;5040327;28;20451;-71
2022/06/11 00:16:58;;;;;;;0.60;0.20;;;20.00;99.90;;;;;;5041262;28;20474;-70
2022/06/11 00:19:27;;;;;;;0.60;0.10;;;19.90;99.90;;;;;;5051588;28;20453;-71
2022/06/11 00:21:56;;;;;;;0.60;0.10;;;19.90;99.90;;;;;;5052257;28;20457;-71
2022/06/11 00:24:26;;;;;;;0.60;0.10;;;19.90;99.90;;;;;;5050438;28;20486;-70
2022/06/11 00:26:56;;;;;;;0.60;0.20;;;19.90;99.90;;;;;;5034798;28;20540;-70
2022/06/11 00:29:29;;;;;;;0.60;0.10;;;19.90;99.90;;;;;;5046646;28;20441;-69
2022/06/11 00:31:57;;;;;;;0.60;0.10;;;19.90;99.90;;;;;;5050255;28;20450;-71
2022/06/11 00:34:27;;;;;;;0.60;0.13;;;19.90;99.90;;;;;;5051554;28;20937;-70
2022/06/11 00:36:55;;;;;;;0.60;0.10;;;19.90;99.90;;;;;;5051303;28;20478;-70
2022/06/11 00:39:27;;;;;;;0.60;0.10;;;19.90;99.90;;;;;;5051796;28;20446;-70
2022/06/11 00:41:58;;;;;;;0.60;0.10;;;19.90;99.90;;;;;;5050844;28;20541;-70
2022/06/11 00:44:28;;;;;;;0.60;0.20;;;19.90;99.90;;;;;;5045431;28;20454;-71
2022/06/11 00:47:02;;;;;;;0.60;0.20;;;19.90;99.90;;;;;;5064344;23;20506;-68
2022/06/11 00:49:38;;;;;;;0.60;0.10;;;19.90;99.90;;;;;;5050442;28;20450;-68
2022/06/11 00:52:20;;;;;;;0.60;0.10;;;19.80;99.90;;;;;;5058757;28;20430;-68
2022/06/11 00:54:53;;;;;;;0.60;0.10;;;19.80;99.90;;;;;;5053355;28;20488;-68
2022/06/11 00:57:21;;;;;;;0.60;0.20;;;;;;;;;;5060668;28;20763;-68
2022/06/11 00:59:53;;;;;;;0.60;0.20;;;19.70;99.90;;;;;;5048816;28;20445;-68
2022/06/11 01:02:21;;;;;;;0.60;0.10;;;19.70;99.90;;;;;;5058343;28;20430;-67
2022/06/11 01:04:53;;;;;;;0.60;0.20;;;19.60;99.90;;;;;;5047470;28;20968;-68
2022/06/11 01:07:32;;;;;;;0.60;0.10;;;19.60;99.90;;;;;;5052893;28;20553;-67
2022/06/11 01:10:13;;;;;;;0.60;0.10;;;19.60;99.90;;;;;;5046938;28;20438;-69
2022/06/11 01:12:51;;;;;;;0.60;0.10;;;19.60;99.90;;;;;;5050079;28;21034;-67
2022/06/11 01:15:24;;;;;;;0.60;0.10;;;19.50;99.90;;;;;;5043889;28;20450;-67
2022/06/11 01:18:03;;;;;;;0.60;0.10;;;19.50;99.90;;;;;;5053357;28;20478;-68
2022/06/11 01:20:40;;;;;;;0.60;0.10;;;19.50;99.90;;;;;;5049725;28;20795;-68
2022/06/11 01:23:50;;;;;;;0.60;0.10;;;19.50;99.90;;;;;;5051193;28;20445;-67
2022/06/11 01:26:41;;;;;;;0.60;0.20;;;19.40;99.90;;;;;;5000980;28;20482;-66
2022/06/11 01:29:28;;;;;;;0.60;0.10;;;19.40;1.00;;;;;;5047247;28;20435;-67
2022/06/11 01:32:00;;;;;;;0.60;0.10;;;19.30;1.00;;;;;;5050883;28;20444;-67
2022/06/11 01:34:35;;;;;;;0.60;0.13;;;19.30;1.00;;;;;;5050701;28;20438;-67
2022/06/11 01:37:09;;;;;;;0.60;0.10;;;19.30;1.00;;;;;;5050556;28;20457;-69
2022/06/11 01:39:43;;;;;;;0.60;0.10;;;19.30;1.00;;;;;;5050612;28;20488;-70
2022/06/11 01:42:19;;;;;;;0.60;0.10;;;19.30;1.00;;;;;;5051082;28;20473;-69
2022/06/11 01:45:02;;;;;;;0.60;0.20;;;19.30;1.00;;;;;;5043349;28;20954;-68
2022/06/11 01:47:31;;;;;;;0.60;0.20;;;19.20;1.00;;;;;;5036564;28;20531;-68
2022/06/11 01:49:59;;;;;;;0.60;0.10;;;19.20;1.00;;;;;;5044607;28;20457;-68
2022/06/11 01:52:47;;;;;;;0.60;0.20;;;19.20;1.00;;;;;;5050297;28;20450;-70
2022/06/11 01:55:21;;;;;;;0.60;0.20;;;19.20;1.00;;;;;;5038793;28;20450;-70
2022/06/11 01:58:02;;;;;;;0.60;0.17;;;19.10;1.00;;;;;;5049722;28;20515;-69
2022/06/11 02:00:35;;;;;;;0.60;0.10;;;19.10;1.00;;;;;;5035334;28;20443;-70
2022/06/11 02:03:17;;;;;;;0.60;0.10;;;19.10;1.00;;;;;;5031751;28;20539;-69
2022/06/11 02:06:00;;;;;;;0.60;0.10;;;19.10;1.00;;;;;;5034103;28;20466;-70
2022/06/11 02:08:40;;;;;;;0.60;0.10;;;19.10;1.00;;;;;;5047969;28;20440;-70
2022/06/11 02:11:16;;;;;;;0.60;0.10;;;19.00;1.00;;;;;;5045469;28;20465;-70
2022/06/11 02:13:49;;;;;;;0.60;0.20;;;19.10;1.00;;;;;;5034457;28;20443;-70
2022/06/11 02:16:22;;;;;;;0.60;0.10;;;18.90;1.00;;;;;;5033885;28;20467;-67
2022/06/11 02:18:52;;;;;;;0.60;0.13;;;18.90;1.00;;;;;;5038440;28;20528;-68
2022/06/11 02:21:27;;;;;;;0.60;0.13;;;18.90;1.00;;;;;;5045156;28;20455;-67
2022/06/11 02:24:00;;;;;;;0.60;0.10;;;18.90;1.00;;;;;;5045887;28;20450;-68
2022/06/11 02:26:32;;;;;;;0.60;0.10;;;18.90;1.00;;;;;;5047629;28;20462;-70
2022/06/11 02:29:01;;;;;;;0.60;0.10;;;18.90;1.00;;;;;;5039005;28;20434;-68
2022/06/11 02:31:36;;;;;;;0.60;0.10;;;18.80;1.00;;;;;;5050088;28;20960;-68
2022/06/11 02:34:06;;;;;;;0.60;0.20;;;18.90;1.00;;;;;;5042120;28;20455;-69
2022/06/11 02:36:46;;;;;;;0.60;0.17;;;18.90;1.00;;;;;;5038208;28;20465;-68
2022/06/11 02:39:14;;;;;;;0.60;0.20;;;18.90;1.00;;;;;;5033719;28;20485;-68
2022/06/11 02:41:43;;;;;;;0.60;0.10;;;18.80;1.00;;;;;;5033797;28;20795;-69
2022/06/11 02:44:11;;;;;;;0.60;0.10;;;18.80;1.00;;;;;;5047870;28;20454;-68
2022/06/11 02:46:43;;;;;;;0.70;0.43;;;18.80;1.00;;;;;;5038540;28;20541;-69
2022/06/11 02:49:16;;;;;;;0.60;0.10;;;18.80;1.00;;;;;;5047830;28;20447;-68
2022/06/11 02:51:46;;;;;;;0.60;0.10;;;18.80;1.00;;;;;;5053356;28;20449;-67
2022/06/11 02:54:14;;;;;;;0.93;0.83;;;18.80;1.00;;;;;;5053551;28;20947;-67
2022/06/11 02:56:43;;;;;;;0.60;0.10;;;18.80;1.00;;;;;;5048635;28;20505;-67
2022/06/11 02:59:12;;;;;;;0.60;0.10;;;18.80;1.00;;;;;;5034893;28;20479;-67
2022/06/11 03:01:41;;;;;;;0.60;0.10;;;18.80;1.00;;;;;;5036115;28;20466;-68
2022/06/11 03:04:09;;;;;;;0.60;0.20;;;18.70;1.00;;;;;;5053213;28;20446;-70
2022/06/11 03:06:41;;;;;;;0.60;0.10;;;18.80;1.00;;;;;;5052474;28;20465;-70
2022/06/11 03:09:11;;;;;;;0.60;0.20;;;18.80;1.00;;;;;;5051469;28;20435;-66
2022/06/11 03:11:39;;;;;;;0.60;0.10;;;18.80;1.00;;;;;;5043947;28;20438;-67
2022/06/11 03:14:08;;;;;;;0.60;0.20;;;18.70;1.00;;;;;;5052322;28;20447;-69
2022/06/11 03:16:37;;;;;;;0.60;0.20;;;18.70;1.00;;;;;;5051787;28;20466;-69
2022/06/11 03:19:08;;;;;;;1.17;1.07;;;18.70;1.00;;;;;;5051507;28;20486;-65
2022/06/11 03:21:37;;;;;;;0.60;0.10;;;18.70;1.00;;;;;;5042631;28;21005;-69
2022/06/11 03:24:06;;;;;;;0.60;0.10;;;18.60;1.00;;;;;;5032981;28;20439;-68
2022/06/11 03:26:34;;;;;;;0.60;0.10;;;18.60;1.00;;;;;;5046667;28;20466;-69
2022/06/11 03:29:03;;;;;;;0.60;0.20;;;18.50;1.00;;;;;;5038278;28;20434;-67
2022/06/11 03:31:32;;;;;;;0.60;0.10;;;18.50;1.00;;;;;;5032999;28;20453;-67
2022/06/11 03:34:00;;;;;;;0.60;0.10;;;18.50;1.00;;;;;;5032632;28;21015;-68
2022/06/11 03:36:30;;;;;;;0.60;0.20;;;18.50;1.00;;;;;;5050910;28;20486;-69
2022/06/11 03:38:58;;;;;;;0.60;0.10;;;18.50;1.00;;;;;;5052698;28;20481;-67
2022/06/11 03:41:26;;;;;;;0.60;0.10;;;18.50;1.00;;;;;;5052653;28;20465;-67
2022/06/11 03:43:54;;;;;;;0.60;0.13;;;18.50;1.00;;;;;;5052378;28;20468;-66
2022/06/11 03:46:22;;;;;;;0.60;0.10;;;18.50;1.00;;;;;;5051711;28;20968;-67
2022/06/11 03:48:51;;;;;;;0.60;0.10;;;18.50;1.00;;;;;;5052291;28;20660;-67
2022/06/11 03:51:19;;;;;;;0.60;0.10;;;18.50;1.00;;;;;;5052788;28;20445;-67
2022/06/11 03:53:48;;;;;;;0.60;0.10;;;18.60;1.00;;;;;;5052587;28;20442;-67
2022/06/11 03:56:18;;;;;;;0.60;0.10;;;18.60;1.00;;;;;;5051472;28;20463;-68
2022/06/11 03:58:48;;;;;;;0.60;0.10;;;18.60;1.00;;;;;;5051745;28;20490;-68
2022/06/11 04:01:16;;;;;;;0.60;0.10;;;18.50;1.00;;;;;;5052455;28;20486;-67
2022/06/11 04:03:46;;;;;;;0.60;0.20;;;18.50;1.00;;;;;;5052587;28;20446;-67
2022/06/11 04:06:16;;;;;;;0.60;0.10;;;18.50;1.00;;;;;;5051934;28;20461;-68
2022/06/11 04:08:44;;;;;;;0.60;0.10;;;18.50;1.00;;;;;;5052041;28;20439;-68
2022/06/11 04:11:14;;;;;;;0.60;0.10;;;18.40;1.00;;;;;;5052043;28;20442;-67
2022/06/11 04:13:44;;;;;;;0.60;0.20;;;18.40;1.00;;;;;;5052204;28;20446;-67
2022/06/11 04:16:21;;;;;;;0.60;0.20;;;18.50;1.00;;;;;;5051169;28;20465;-68
2022/06/11 04:18:51;;;;;;;0.60;0.10;;;18.50;1.00;;;;;;5052103;28;20474;-67
2022/06/11 04:21:19;;;;;;;0.60;0.10;;;;;;;;;;5052057;28;20450;-66
2022/06/11 04:23:50;;;;;;;0.60;0.20;;;18.50;1.00;;;;;;5051881;28;20944;-67
2022/06/11 04:26:23;;;;;;;0.60;0.10;;;18.50;1.00;;;;;;5050993;28;20466;-67
2022/06/11 04:28:51;;;;;;;0.60;0.10;;;18.50;1.00;;;;;;5032151;28;20471;-67
2022/06/11 04:31:19;;;;;;;0.60;0.30;;;18.50;1.00;;;;;;5032068;28;20473;-68
2022/06/11 04:33:48;;;;;;;0.60;0.10;;;18.40;1.00;;;;;;5031793;28;20512;-67
2022/06/11 04:36:17;;;;;;;0.60;0.20;;;18.50;1.00;;;;;;5048940;28;20466;-68
2022/06/11 04:38:46;;;;;;;0.60;0.10;;;18.50;1.00;;;;;;5051755;28;20442;-67
2022/06/11 04:41:14;;;;;;;0.60;0.10;;;;;;;;;;5051398;28;20443;-67
2022/06/11 04:43:43;;;;;;;0.60;0.17;;;18.50;1.00;;;;;;5051555;28;20944;-68
2022/06/11 04:46:11;;;;;;;0.60;0.20;;;18.60;1.00;;;;;;5051144;28;20486;-67
2022/06/11 04:48:41;;;;;;;0.60;0.20;;;18.60;1.00;;;;;;5051317;28;20802;-67
2022/06/11 04:51:10;;;;;;;0.60;0.10;;;18.60;1.00;;;;;;5051597;28;20453;-68
2022/06/11 04:53:38;;;;;;;0.60;0.20;;;18.60;1.00;;;;;;5051366;28;20810;-67
2022/06/11 04:56:07;;;;;;;0.60;0.20;;;18.70;1.00;;;;;;5050773;28;20466;-70
2022/06/11 04:58:35;;;;;;;0.60;0.10;;;18.70;1.00;;;;;;5051502;28;20525;-68
2022/06/11 05:01:04;;;;;;;0.60;0.20;;;18.70;1.00;;;;;;5051624;28;20567;-67
2022/06/11 05:03:32;;;;;;;0.60;0.10;;;18.70;1.00;;;;;;5051070;28;20443;-67
2022/06/11 05:06:01;;;;;;;0.60;0.10;;;18.70;1.00;;;;;;5050793;28;20472;-67
2022/06/11 05:08:29;;;;;;;0.60;0.10;;;18.70;1.00;;;;;;5051028;28;20447;-68
2022/06/11 05:10:57;;;;;;;0.60;0.10;;;18.70;1.00;;;;;;5051530;28;20438;-69
2022/06/11 05:13:25;;;;;;;0.60;0.20;;;18.60;1.00;;;;;;5051143;28;20898;-69
2022/06/11 05:15:57;;;;;;;0.60;0.10;;;18.60;1.00;;;;;;5050743;28;21011;-68
2022/06/11 05:18:27;;;;;;;0.60;0.10;;;18.70;1.00;;;;;;5050788;28;20439;-69
2022/06/11 05:21:01;;;;;;;0.70;0.40;;;19.90;1.00;;;;;;5051280;28;20543;-67
2022/06/11 05:23:29;;;;;;;0.80;0.53;;;18.80;1.00;;;;;;5051422;28;20446;-67
2022/06/11 05:25:57;;;;;;;0.60;0.10;;;18.80;1.00;;;;;;5051177;28;20557;-67
2022/06/11 05:28:29;;;;;;;0.60;0.20;;;18.80;1.00;;;;;;5050635;28;20525;-70
2022/06/11 05:30:57;;;;;;;0.60;0.20;;;18.90;1.00;;;;;;5043339;28;20513;-68
2022/06/11 05:33:28;;;;;;;0.60;0.20;;;18.90;1.00;;;;;;5051193;28;20981;-69
2022/06/11 05:35:56;;;;;;;0.60;0.10;;;18.90;1.00;;;;;;5048206;28;20920;-67
2022/06/11 05:38:26;;;;;;;0.60;0.10;;;18.90;1.00;;;;;;5051918;28;20454;-67
2022/06/11 05:40:55;;;;;;;0.60;0.10;;;19.00;1.00;;;;;;5053541;28;20481;-68
2022/06/11 05:43:25;;;;;;;0.60;0.13;;;19.00;1.00;;;;;;5053089;28;20590;-68
2022/06/11 05:45:56;;;;;;;0.60;0.10;;;19.10;1.00;;;;;;5046576;28;20493;-67
2022/06/11 05:48:30;;;;;;;0.60;0.20;;;19.10;1.00;;;;;;5054356;28;20461;-68
2022/06/11 05:50:59;;;;;;;0.60;0.20;;;19.10;1.00;;;;;;5054860;28;20757;-68
2022/06/11 05:53:31;;;;;;;0.60;0.20;;;19.30;1.00;;;;;;5054690;28;20476;-68
2022/06/11 05:56:01;;;;;;;0.60;0.10;;;19.50;1.00;;;;;;5054048;28;20458;-67
2022/06/11 05:58:35;;;;;;;0.60;0.10;;;19.60;1.00;;;;;;5053464;28;20478;-70
2022/06/11 06:01:04;;;;;;;0.60;0.20;;;19.80;1.00;;;;;;5053823;28;20478;-68
2022/06/11 06:03:33;;;;;;;0.60;0.20;;;19.80;99.90;;;;;;5054544;28;20447;-68
2022/06/11 06:06:01;;;;;;;0.60;0.10;;;19.90;99.90;;;;;;5056172;28;20478;-67
2022/06/11 06:08:29;;;;;;;0.60;0.10;;;19.90;99.90;;;;;;5053473;28;20444;-68
2022/06/11 06:10:57;;;;;;;0.60;0.20;;;;;;;;;;5056994;28;20449;-70
2022/06/11 06:16:11;;;;;;;0.60;0.10;;;20.10;99.90;;;;;;5048438;28;20844;-69
2022/06/11 06:18:40;;;;;;;0.60;0.10;;;20.10;99.90;;;;;;5073036;28;20528;-69
2022/06/11 06:21:08;;;;;;;0.60;0.10;;;20.20;99.90;;;;;;5073910;28;20982;-68
2022/06/11 06:23:36;;;;;;;0.60;0.10;;;;;;;;;;5074523;28;20446;-68
2022/06/11 06:26:05;;;;;;;0.60;0.10;;;20.30;99.90;;;;;;5063061;28;20476;-68
2022/06/11 06:28:34;;;;;;;0.60;0.10;;;20.40;99.90;;;;;;5053719;28;20457;-68
2022/06/11 06:31:04;;;;;;;0.60;0.10;;;20.40;99.90;;;;;;5053751;28;20443;-68
2022/06/11 06:33:33;;;;;;;0.60;0.10;;;20.40;99.90;;;;;;5053848;28;20453;-68
2022/06/11 06:36:05;;;;;;;0.60;0.20;;;20.50;99.90;;;;;;5053921;28;20638;-67
2022/06/11 06:38:33;;;;;;;0.60;0.10;;;20.50;99.90;;;;;;5053825;28;20646;-67
2022/06/11 06:41:02;;;;;;;0.60;0.10;;;20.60;99.90;;;;;;5047582;28;20478;-69
2022/06/11 06:43:30;;;;;;;0.60;0.17;;;20.60;99.90;;;;;;5045535;28;21032;-70
2022/06/11 06:45:58;;;;;;;0.60;0.20;;;20.80;99.90;;;;;;5038560;28;20844;-72
2022/06/11 06:48:26;;;;;;;0.60;0.10;;;20.90;99.90;;;;;;5038734;28;20443;-71
2022/06/11 06:50:54;;;;;;;0.60;0.10;;;21.00;99.90;;;;;;5034066;28;20435;-72
2022/06/11 06:53:24;;;;;;;0.60;0.10;;;;;;;;;;5038604;28;20447;-72
2022/06/11 06:55:52;;;;;;;0.60;0.20;;;21.20;99.90;;;;;;5037493;28;20838;-72
2022/06/11 06:58:20;;;;;;;0.60;0.10;;;21.20;99.90;;;;;;5049590;28;20443;-71
2022/06/11 07:00:48;;;;;;;0.70;0.10;;;21.20;99.90;;;;;;5052778;28;20581;-71
2022/06/11 07:03:16;;;;;;;0.60;0.20;;;21.20;99.90;;;;;;5042815;28;20466;-70
2022/06/11 07:05:45;;;;;;;0.60;0.10;;;21.20;99.90;;;;;;5033131;28;20467;-70
2022/06/11 07:08:14;;;;;;;0.60;0.10;;;21.20;99.90;;;;;;5045554;28;20514;-71
2022/06/11 07:10:48;;;;;;;0.70;0.10;;;21.40;99.90;;;;;;5038075;28;20513;-70
2022/06/11 07:13:17;;;;;;;0.60;0.20;;;21.40;99.90;;;;;;5047788;28;20450;-71
2022/06/11 07:15:47;;;;;;;0.70;0.10;;;21.60;99.90;;;;;;5053116;28;20504;-71
2022/06/11 07:18:19;;;;;;;0.67;0.10;;;21.70;99.90;;;;;;5053178;28;20538;-71
2022/06/11 07:20:48;;;;;;;0.70;0.10;;;21.70;99.90;;;;;;5053447;28;20466;-72
2022/06/11 07:23:21;;;;;;;0.67;0.10;;;21.80;99.90;;;;;;5051827;28;20442;-72
2022/06/11 07:25:53;;;;;;;0.70;0.10;;;22.00;99.90;;;;;;5053187;28;20791;-71
2022/06/11 07:28:25;;;;;;;0.70;0.10;;;22.00;99.90;;;;;;5052574;28;20453;-72
2022/06/11 07:30:54;;;;;;;0.60;0.20;;;22.30;99.90;;;;;;5053136;28;20439;-71
2022/06/11 07:33:25;;;;;;;0.70;0.10;;;22.30;99.90;;;;;;5052918;28;20462;-73
2022/06/11 07:35:54;;;;;;;0.70;0.20;;;22.40;99.90;;;;;;5052587;28;20454;-71
2022/06/11 07:38:28;;;;;;;0.70;0.20;;;22.50;99.90;;;;;;5052661;28;20510;-71
2022/06/11 07:40:58;;;;;;;0.70;0.10;;;;;;;;;;5053061;28;20474;-70
2022/06/11 07:43:26;;;;;;;0.70;0.20;;;22.80;99.90;;;;;;5052610;28;20943;-71
2022/06/11 07:45:54;;;;;;;0.70;0.20;;;22.90;99.90;;;;;;5051733;28;20569;-71
2022/06/11 07:48:23;;;;;;;0.70;0.10;;;23.10;99.90;;;;;;5054140;28;20939;-71
2022/06/11 07:50:52;;;;;;;0.70;0.20;;;23.20;99.90;;;;;;5054355;28;20919;-70
2022/06/11 07:53:22;;;;;;;0.70;0.10;;;23.10;99.90;;;;;;5053955;28;20803;-70
2022/06/11 07:55:53;;;;;;;0.70;0.10;;;23.10;99.90;;;;;;5052762;28;20459;-70
2022/06/11 07:58:26;;;;;;;0.70;0.10;;;23.10;99.90;;;;;;5052520;28;20496;-70
2022/06/11 08:00:54;;;;;;;0.70;0.10;;;23.10;99.90;;;;;;5050889;28;20493;-72
2022/06/11 08:03:22;;;;;;;0.70;0.20;;;23.30;99.90;;;;;;5052356;28;20447;-71
2022/06/11 08:05:52;;;;;;;0.70;0.10;;;23.30;99.90;;;;;;5051817;28;20466;-71
2022/06/11 08:08:22;;;;;;;0.70;0.10;;;23.40;99.90;;;;;;5052100;28;20452;-71
2022/06/11 08:10:55;;;;;;;0.70;0.10;;;23.40;99.90;;;;;;5052432;28;20468;-71
2022/06/11 08:13:25;;;;;;;0.70;0.20;;;23.40;99.90;;;;;;5049152;28;20963;-70
2022/06/11 08:15:54;;;;;;;0.70;0.27;;;23.40;99.90;;;;;;5051748;28;20466;-70
2022/06/11 08:18:22;;;;;;;0.70;0.20;;;23.40;99.90;;;;;;5051035;28;20868;-72
2022/06/11 08:20:51;;;;;;;0.70;0.10;;;23.40;99.90;;;;;;5044383;28;20447;-72
2022/06/11 08:23:20;;;;;;;0.70;0.10;;;23.40;99.90;;;;;;5052180;28;20542;-72
2022/06/11 08:25:48;;;;;;;0.83;0.40;;;23.40;99.90;;;;;;5051737;28;20463;-73
2022/06/11 08:28:17;;;;;;;0.70;0.10;;;23.40;99.90;;;;;;5050858;28;20450;-72
2022/06/11 08:30:47;;;;;;;0.70;0.10;;;23.40;99.90;;;;;;5052033;28;20470;-72
2022/06/11 08:33:15;;;;;;;0.80;0.33;;;23.40;99.90;;;;;;5043371;28;20963;-72
2022/06/11 08:35:44;;;;;;;0.70;0.20;;;23.40;99.90;;;;;;5051424;28;20462;-71
2022/06/11 08:38:12;;;;;;;0.70;0.10;;;23.50;99.90;;;;;;5051303;28;20452;-71
2022/06/11 08:40:44;;;;;;;0.70;0.10;;;23.50;99.90;;;;;;5051795;28;20449;-70
2022/06/11 08:43:18;;;;;;;0.70;0.20;;;23.40;99.90;;;;;;5048768;28;20446;-71
2022/06/11 08:45:49;;;;;;;0.70;0.20;;;23.40;99.90;;;;;;5051351;28;20459;-70
2022/06/11 08:48:33;;;;;;;0.70;0.10;;;23.50;99.90;;;;;;5050898;28;20450;-71
2022/06/11 08:51:15;;;;;;;1.30;0.50;;;23.50;99.90;;;;;;5051448;28;20459;-70
2022/06/11 08:53:43;;;;;;;0.70;0.20;;;23.70;99.90;;;;;;5051343;28;20439;-70
2022/06/11 08:56:16;;;;;;;0.70;0.20;;;23.70;99.90;;;;;;5050608;28;20463;-71
2022/06/11 08:59:03;;;;;;;0.70;0.10;;;23.70;99.90;;;;;;5051588;28;20462;-71
2022/06/11 09:01:42;;;;;;;0.70;0.10;;;23.90;99.90;;;;;;5051450;28;20484;-70
2022/06/11 09:04:25;;;;;;;0.70;0.20;;;;;;;;;;5051688;28;20473;-71
2022/06/11 09:07:17;;;;;;;0.70;0.20;;;23.90;99.90;;;;;;5045646;28;20501;-71
2022/06/11 09:10:05;;;;;;;0.70;0.10;;;24.00;99.90;;;;;;5051618;28;20530;-71
2022/06/11 09:13:09;;;;;;;0.70;0.20;;;24.20;99.90;;;;;;5052304;28;20490;-71
2022/06/11 09:15:48;;;;;;;0.70;0.10;;;24.40;99.90;;;;;;5055904;28;20815;-70
2022/06/11 09:19:07;;;;;;;0.70;0.20;;;24.40;99.90;;;;;;5055226;28;20438;-71
2022/06/11 09:21:56;;;;;;;0.70;0.10;;;24.80;99.90;;;;;;5055240;28;20474;-71
2022/06/11 09:24:37;;;;;;;0.70;0.20;;;24.80;99.90;;;;;;5054815;28;20446;-71
2022/06/11 09:27:13;;;;;;;0.70;0.20;;;24.90;99.90;;;;;;5054935;28;20501;-70
2022/06/11 09:29:52;;;;;;;0.70;0.10;;;24.90;99.90;;;;;;5055196;28;20448;-71
2022/06/11 09:32:27;;;;;;;0.70;0.10;;;24.90;99.90;;;;;;5056957;28;20441;-73
2022/06/11 09:35:03;;;;;;;0.70;0.20;;;25.00;99.90;;;;;;5052458;28;20434;-71
2022/06/11 09:37:37;;;;;;;0.70;0.20;;;25.00;99.90;;;;;;5048642;28;20948;-73
2022/06/11 09:40:12;;;;;;;0.70;0.33;;;24.90;99.90;;;;;;5057173;28;20446;-71
2022/06/11 09:43:00;;;;;;;0.80;0.43;;;24.60;99.90;;;;;;5065117;28;20469;-70
2022/06/11 09:45:34;;;;;;;0.70;0.10;;;24.60;99.90;;;;;;5070997;28;20454;-71
2022/06/11 09:48:22;;;;;;;0.70;0.20;;;24.80;99.90;;;;;;5074798;28;20511;-72
2022/06/11 09:50:58;;;;;;;0.70;0.10;;;25.10;99.90;;;;;;5074789;28;20433;-71
2022/06/11 09:53:44;;;;;;;0.70;0.10;;;25.30;99.90;;;;;;5074602;28;20532;-72
2022/06/11 09:56:22;;;;;;;0.70;0.10;;;25.40;99.90;;;;;;5034518;28;20490;-71
2022/06/11 09:59:01;;;;;;;0.70;0.10;;;25.40;99.90;;;;;;5035142;28;20451;-70
2022/06/11 10:01:32;;;;;;;0.70;0.20;;;25.30;99.90;;;;;;5035007;28;20442;-74
2022/06/11 10:04:06;;;;;;;0.70;0.10;;;25.20;99.90;;;;;;5035435;28;20534;-72
2022/06/11 10:06:41;;;;;;;0.70;0.13;;;25.10;99.90;;;;;;5035494;28;20455;-72
2022/06/11 10:09:16;;;;;;;0.70;0.20;;;25.20;99.90;;;;;;5035295;28;20462;-71
2022/06/11 10:11:49;;;;;;;0.70;0.10;;;25.20;99.90;;;;;;5049438;28;20446;-72
2022/06/11 10:14:30;;;;;;;0.70;0.10;;;25.10;99.90;;;;;;5054161;28;20442;-72
2022/06/11 10:17:03;;;;;;;0.70;0.10;;;25.10;99.90;;;;;;5047806;28;20461;-73
2022/06/11 10:19:38;;;;;;;0.70;0.10;;;25.10;99.90;;;;;;5054125;28;20462;-73
2022/06/11 10:22:13;;;;;;;0.70;0.10;;;25.20;99.90;;;;;;5054304;28;20564;-71
2022/06/11 10:24:49;;;;;;;0.70;0.10;;;25.40;99.90;;;;;;5064154;28;20768;-70
2022/06/11 10:27:19;;;;;;;0.70;0.10;;;25.40;99.90;;;;;;5064524;28;20536;-70
2022/06/11 10:29:49;;;;;;;0.70;0.20;;;25.40;99.90;;;;;;5055052;28;20457;-70
2022/06/11 10:32:23;;;;;;;0.70;0.17;;;25.50;99.90;;;;;;5052977;28;20443;-71
2022/06/11 10:34:59;;;;;;;0.70;0.20;;;25.50;99.90;;;;;;5058176;28;20450;-70
2022/06/11 10:37:34;;;;;;;0.70;0.10;;;25.50;99.90;;;;;;5065106;28;20457;-71
2022/06/11 10:40:10;;;;;;;0.70;0.20;;;25.50;99.90;;;;;;5050013;28;21001;-73
2022/06/11 10:42:46;;;;;;;0.70;0.10;;;25.50;99.90;;;;;;5056465;28;20484;-71
2022/06/11 10:45:16;;;;;;;0.70;0.10;;;25.50;99.90;;;;;;5054333;28;20859;-70
2022/06/11 10:47:47;;;;;;;0.80;0.43;;;25.50;99.90;;;;;;5054149;28;20528;-72
2022/06/11 10:50:19;;;;;;;0.70;0.10;;;25.30;99.90;;;;;;5056046;28;20437;-70
2022/06/11 10:52:54;;;;;;;1.00;0.60;;;25.30;99.90;;;;;;5074509;28;20440;-71
2022/06/11 10:55:31;;;;;;;0.70;0.10;;;25.50;99.90;;;;;;5062052;28;20461;-73
2022/06/11 10:58:04;;;;;;;0.70;0.10;;;25.60;99.90;;;;;;5053414;28;20457;-71
2022/06/11 11:00:40;;;;;;;0.70;0.10;;;25.90;99.90;;;;;;5053951;28;20439;-73
2022/06/11 11:03:15;;;;;;;0.70;0.20;;;26.10;99.90;;;;;;5044909;28;20494;-72
2022/06/11 11:05:51;;;;;;;0.70;0.20;;;26.10;99.90;;;;;;5052032;28;20976;-72
2022/06/11 11:08:20;;;;;;;0.70;0.10;;;26.10;99.90;;;;;;5046756;28;20442;-75
2022/06/11 11:10:51;;;;;;;0.70;0.10;;;26.10;99.90;;;;;;5053661;28;20442;-71
2022/06/11 11:13:25;;;;;;;0.70;0.20;;;26.00;99.90;;;;;;5041695;28;20435;-70
2022/06/11 11:15:59;;;;;;;0.70;0.10;;;25.90;99.90;;;;;;5033359;28;20459;-72
2022/06/11 11:18:34;;;;;;;0.70;0.20;;;25.90;99.90;;;;;;5033256;28;20860;-72
2022/06/11 11:21:02;;;;;;;0.70;0.10;;;25.90;99.90;;;;;;5033467;28;21113;-69
2022/06/11 11:23:38;;;;;;;0.70;0.20;;;26.10;99.90;;;;;;5033796;28;20509;-70
2022/06/11 11:26:14;;;;;;;0.70;0.10;;;26.20;99.90;;;;;;5046611;28;20515;-71
2022/06/11 11:28:56;;;;;;;0.70;0.10;;;26.10;99.90;;;;;;5051938;28;20497;-71
2022/06/11 11:31:26;;;;;;;0.70;0.10;;;26.10;99.90;;;;;;5051289;28;20529;-71
2022/06/11 11:34:00;;;;;;;0.70;0.10;;;26.20;99.90;;;;;;5052422;28;20929;-71
2022/06/11 11:36:30;;;;;;;0.70;0.10;;;26.20;99.90;;;;;;5051548;28;20463;-71
2022/06/11 11:39:17;;;;;;;0.70;0.10;;;26.20;99.90;;;;;;5032834;28;20451;-70
2022/06/11 11:41:55;;;;;;;0.70;0.10;;;26.20;99.90;;;;;;5032814;28;20550;-70
2022/06/11 11:44:24;;;;;;;0.70;0.20;;;26.40;99.90;;;;;;5042398;28;20478;-71
2022/06/11 11:46:56;;;;;;;0.70;0.10;;;26.70;99.90;;;;;;5052312;28;20493;-71
2022/06/11 11:49:28;;;;;;;1.00;0.20;;;26.70;99.90;;;;;;5052526;28;20450;-71
2022/06/11 11:52:04;;;;;;;0.70;0.10;;;26.80;99.90;;;;;;5052556;28;20437;-72
2022/06/11 11:54:35;;;;;;;0.70;0.20;;;26.80;99.90;;;;;;5052276;28;20442;-72
2022/06/11 11:57:06;;;;;;;0.70;0.10;;;27.10;99.90;;;;;;5062635;28;20474;-71
2022/06/11 11:59:41;;;;;;;0.70;0.10;;;27.20;99.90;;;;;;5069710;28;20446;-72
2022/06/11 12:02:17;;;;;;;0.70;0.20;;;27.40;99.90;;;;;;5052713;28;20442;-71
2022/06/11 12:04:55;;;;;;;0.70;0.10;;;27.40;99.90;;;;;;5051783;28;20482;-71
2022/06/11 12:07:32;;;;;;;0.70;0.10;;;27.50;99.90;;;;;;5052526;28;20466;-71
2022/06/11 12:10:14;;;;;;;0.70;0.10;;;27.30;99.90;;;;;;5052646;28;20457;-71
2022/06/11 12:12:45;;;;;;;0.70;0.10;;;27.20;99.90;;;;;;5046851;28;21668;-71
2022/06/11 12:15:18;;;;;;;0.70;0.10;;;27.10;99.90;;;;;;5058013;28;20445;-70
2022/06/11 12:17:49;;;;;;;0.70;0.10;;;27.00;99.90;;;;;;5041667;28;20474;-71
2022/06/11 12:20:32;;;;;;;0.70;0.10;;;26.90;99.90;;;;;;5052229;28;20434;-71
2022/06/11 12:23:04;;;;;;;0.70;0.10;;;26.80;99.90;;;;;;5046876;28;20811;-71
2022/06/11 12:25:39;;;;;;;0.70;0.10;;;27.10;99.90;;;;;;5048269;28;20964;-72
2022/06/11 12:28:07;;;;;;;0.70;0.10;;;;;;;;;;5045634;28;20430;-72
2022/06/11 12:30:36;;;;;;;1.00;0.50;;;27.40;99.90;;;;;;5051842;28;20435;-74
2022/06/11 12:33:11;;;;;;;0.70;0.10;;;27.50;99.90;;;;;;5063634;28;20470;-72
2022/06/11 12:35:49;;;;;;;0.80;0.30;;;27.30;99.90;;;;;;5051976;28;20423;-72
2022/06/11 12:38:30;;;;;;;0.70;0.20;;;27.30;99.90;;;;;;5051939;28;20929;-71
2022/06/11 12:41:12;;;;;;;0.70;0.10;;;27.30;99.90;;;;;;5052095;28;20441;-72
2022/06/11 12:43:50;;;;;;;0.70;0.20;;;27.40;99.90;;;;;;5051874;28;20506;-72
2022/06/11 12:46:26;;;;;;;0.70;0.17;;;27.50;99.90;;;;;;5051211;28;20473;-73
2022/06/11 12:49:11;;;;;;;0.70;0.20;;;27.50;99.90;;;;;;5053952;28;20442;-73
2022/06/11 12:52:11;;;;;;;0.90;0.30;;;27.80;99.90;;;;;;5055758;28;20430;-71
2022/06/11 12:54:52;;;;;;;0.70;0.20;;;27.80;99.90;;;;;;5061420;23;20542;-72
2022/06/11 12:57:33;;;;;;;0.70;0.13;;;27.80;99.90;;;;;;5042874;28;20446;-73
2022/06/11 13:00:15;;;;;;;0.70;0.20;;;28.10;99.90;;;;;;5043841;28;20778;-72
2022/06/11 13:02:58;;;;;;;0.70;0.10;;;28.10;99.90;;;;;;5043700;28;20820;-74
2022/06/11 13:05:53;;;;;;;0.80;0.27;;;28.20;99.90;;;;;;5047168;28;20847;-73
2022/06/11 13:08:44;;;;;;;0.70;0.20;;;28.30;99.90;;;;;;5072590;28;20466;-74
2022/06/11 13:11:20;;;;;;;0.70;0.13;;;28.30;99.90;;;;;;5069598;28;20442;-73
2022/06/11 13:14:04;;;;;;;0.70;0.20;;;28.50;99.90;;;;;;5065256;28;20537;-74
2022/06/11 13:16:42;;;;;;;1.90;0.77;;;28.50;99.90;;;;;;5052114;28;20449;-73
2022/06/11 13:19:33;;;;;;;0.70;0.13;;;28.50;99.90;;;;;;5052295;28;20438;-73
2022/06/11 13:22:08;;;;;;;0.70;0.10;;;28.40;99.90;;;;;;5052930;28;20494;-73
2022/06/11 13:24:42;;;;;;;0.90;0.50;;;28.10;99.90;;;;;;5052842;28;21018;-74
2022/06/11 13:27:24;;;;;;;1.67;0.60;;;27.90;99.90;;;;;;5058765;28;20441;-73